Frej — SBPT — position and weather

sailwx.info

Track history (hours):
 
Tides and Currents Weather Stations Pressure Air Temp Water Temp Dewpoint Dewpoint Depression Visibility Wind Speed Wind Dir Waves Ship Positions

Frej

Last reported at 2016-Feb-02 10:00 UTC. Time now 2016-Feb-11 02:25 UTC.
Position N 64°42' E 024°24'.
Warning: this ship's position is 8 days out of date.

Length 108 m; draft 7.8 m.

Type: Other ship. MMSI: 265068000.

Wind from 230 at 16 knots

Barometer 976.6 mb
Water temperature 0.8 ° C

Date/timePositionNaut miles runAvg speedWind from/ knotsBaromVisibWave heightAir tempDewpointWater temp
2016-Feb-02 10:00N 64°42' E 024°24'0 0.0 230 / 16976.6 0.8
2016-Feb-02 09:00N 64°42' E 024°24'0 0.0 230 / 16976.5 0.8
2016-Feb-02 08:00N 64°42' E 024°24'0 0.0 230 / 16976.3 0.7
2016-Feb-02 04:00N 64°42' E 024°24'0 0.0 230 / 16975.9 -7.6 0.8
2016-Feb-01 20:00N 64°42' E 024°24'0 0.0 230 / 16980.1 -5.9 0.7
2016-Feb-01 16:00N 64°42' E 024°24'0 0.0 230 / 16983.1 -0.6 0.4
2016-Feb-01 15:00N 64°42' E 024°24'0 0.0 230 / 16984.3 -0.8 0.6
2016-Feb-01 13:00N 64°42' E 024°24'0 0.0 230 / 16984.9 -0.8 0.2
2016-Feb-01 12:00N 64°42' E 024°24'0 0.0 230 / 16985.7 -1.5 0.5
2016-Feb-01 11:00N 64°42' E 024°24'0 0.0 230 / 16986.1 -1.3 0.6
2016-Feb-01 10:00N 64°42' E 024°24'0 0.0 230 / 16986.0 -1.4 0.4
2016-Feb-01 08:00N 64°42' E 024°24'0 0.0 230 / 16985.5 -1.4 0.2
2016-Feb-01 05:00N 64°42' E 024°24'0 0.0 230 / 16983.7 -1.4 0.6
2016-Feb-01 04:00N 64°42' E 024°24'0 0.0 230 / 16983.5 -0.9 0.6
2016-Feb-01 02:00N 64°42' E 024°24'0 0.0 230 / 16983.0 -0.7 0.7
2016-Jan-31 23:00N 64°42' E 024°24'0 0.0 230 / 16981.3 -0.2 0.2
2016-Jan-31 22:00N 64°42' E 024°24'0 0.0 230 / 16980.9 -0.2 0.2
2016-Jan-31 20:00N 64°42' E 024°24'0 0.0 230 / 16979.5 -0.1 0.6
2016-Jan-31 17:00N 64°42' E 024°24'0 0.0 230 / 16978.6 -1.1 0.6
2016-Jan-31 16:00N 64°42' E 024°24'0 0.0 230 / 16977.9 -0.5 0.6
2016-Jan-31 15:00N 64°42' E 024°24'0 0.0 230 / 16977.7 -0.4 0.6
2016-Jan-31 14:00N 64°42' E 024°24'0 0.0 230 / 16977.1 -0.6 0.6
2016-Jan-31 13:00N 64°42' E 024°24'0 0.0 230 / 16976.5 -0.6 0.6
2016-Jan-31 12:00N 64°42' E 024°24'0 0.0 230 / 16976.2 -0.4 0.6
2016-Jan-31 10:00N 64°42' E 024°24'0 0.0 230 / 16974.6 -0.2 0.8
2016-Jan-31 05:00N 64°42' E 024°24'0 0.0 230 / 16972.9 -0.1 0.2
2016-Jan-31 04:00N 64°42' E 024°24'0 0.0 230 / 16971.3 0.3 0.2
2016-Jan-31 03:00N 64°42' E 024°24'0 0.0 230 / 16970.1 0.3 0.2
2016-Jan-31 01:00N 64°42' E 024°24'0 0.0 230 / 16969.2 0.2 0.2
2016-Jan-31 00:00N 64°42' E 024°24'0 0.0 230 / 16969.4 0.3 0.3
2016-Jan-30 22:00N 64°42' E 024°24'0 0.0 230 / 16968.9 0.1 0.2
2016-Jan-30 15:00N 64°42' E 024°24'0 0.0 230 / 16974.0 1.6 0.7
2016-Jan-30 12:00N 64°42' E 024°24'0 0.0 230 / 16974.0 2.2 0.2
2016-Jan-29 19:00N 64°42' E 024°24'0 0.0 230 / 16981.7 -0.4 0.4
2016-Jan-29 17:00N 64°42' E 024°24'0 0.0 230 / 16986.8 -1.5 0.2
2016-Jan-29 16:00N 64°42' E 024°24'0 0.0 230 / 16986.8 -1.7 0.2
2016-Jan-29 15:00N 64°42' E 024°24'0 0.0 230 / 16988.7 -2.0 0.2
2016-Jan-29 14:00N 64°42' E 024°24'0 0.0 230 / 16990.0 -4.3 0.8
2016-Jan-29 13:00N 64°42' E 024°24'0 0.0 230 / 16990.2 -3.6 0.9
2016-Jan-29 12:00N 64°42' E 024°24'0 0.0 230 / 16990.6 -3.9 0.9
2016-Jan-29 11:00N 64°42' E 024°24'0 0.0 230 / 16991.0 -3.5 0.8
2016-Jan-29 10:00N 64°42' E 024°24'0 0.0 230 / 16991.5 -5.9 0.8
2016-Jan-29 07:00N 64°42' E 024°24'10 1.1 230 / 16991.2 -3.2 0.8
2016-Jan-28 22:00N 64°36' E 024°06'0 0.0 989.6 -5.6 0.2
2016-Jan-28 19:00N 64°36' E 024°06'0 0.0 988.0 -4.3 0.8
2016-Jan-28 17:00N 64°36' E 024°06'0 0.0 986.7 -3.9 0.7
2016-Jan-28 16:00N 64°36' E 024°06'3 2.6 985.2 -3.4 0.3
2016-Jan-28 15:00N 64°36' E 024°00'12 5.9 010 / 23985.7 -2.7 0.3
2016-Jan-28 13:00N 64°42' E 024°24'0 0.0 030 / 17984.6 -1.1 0.5
2016-Jan-28 11:00N 64°42' E 024°24'0 0.0 040 / 12984.6 -0.2 0.9
2016-Jan-28 10:00N 64°42' E 024°24'0 0.0 030 / 12985.1 -0.7 0.8
2016-Jan-28 05:00N 64°42' E 024°24'0 0.0 180 986.1 -0.2 0.9
2016-Jan-28 01:00N 64°42' E 024°24'0 0.0 230 / 12987.1 -0.2 0.8
2016-Jan-28 00:00N 64°42' E 024°24'0 0.0 220 / 12987.5 -0.2 0.7
2016-Jan-27 21:00N 64°42' E 024°24'13 3.2 220 / 16986.8 -0.2 0.8
2016-Jan-27 17:00N 64°42' E 023°54'0 0.0 230 / 23986.5 0.3 0.6
2016-Jan-27 16:00N 64°42' E 023°54'0 0.0 200 / 21986.2 0.4 0.7
2016-Jan-27 15:00N 64°42' E 023°54'0 0.0 180 / 19986.2 0.5 0.7
2016-Jan-27 14:00N 64°42' E 023°54'16 7.9 180 / 16986.3 0.5 0.5
2016-Jan-27 12:00N 64°30' E 023°30'8 7.9 230 / 16986.5 0.2 0.3
2016-Jan-27 11:00N 64°24' E 023°18'10 9.8 160 / 19986.9 -0.0 0.2
2016-Jan-27 10:00N 64°18' E 023°36'3 2.6 160 / 14987.6 0.5 0.3
2016-Jan-27 09:00N 64°18' E 023°42'6 3.0 150 / 14987.9 0.4 0.4
2016-Jan-27 07:00N 64°12' E 023°42'20 9.8 130 / 4988.4 -0.0 0.2
2016-Jan-27 05:00N 64°30' E 023°24'28 9.5 160 / 19987.9 -0.8 0.3
2016-Jan-27 02:00N 64°42' E 024°24'7 6.5 200 / 14991.1 -3.5 0.4
2016-Jan-27 01:00N 64°36' E 024°18'1414.2 280 / 8991.0 -1.4 0.2
2016-Jan-27 00:00N 64°42' E 023°48'15 7.7 250 / 10991.1 -0.5 0.3
2016-Jan-26 22:00N 64°42' E 024°24'10 2.6 210 / 23991.9 -1.3 0.3
2016-Jan-26 18:00N 64°42' E 024°00'3 2.6 260 / 14990.6 -0.2 0.5
2016-Jan-26 17:00N 64°42' E 023°54'10 9.8 260 / 16990.7 0.6 0.2
2016-Jan-26 16:00N 64°36' E 024°12'7 6.5 260 / 25989.3 -0.3 0.2
2016-Jan-26 15:00N 64°42' E 024°18'8 7.7 270 / 29989.4 -0.7 0.3
2016-Jan-26 14:00N 64°42' E 024°00'0 0.0 170 / 2989.1 -0.1 0.4
2016-Jan-26 13:00N 64°42' E 024°00'7 3.3 260 / 19988.4 0.1 0.4
2016-Jan-26 11:00N 64°36' E 024°06'8 2.0 170 / 21988.9 -1.1 0.3
2016-Jan-26 07:00N 64°42' E 024°18'0 0.0 150 / 21995.1 -3.2 0.3
2016-Jan-26 05:00N 64°42' E 024°18'3 0.9 150 / 23997.8 -3.9 0.3
2016-Jan-26 02:00N 64°42' E 024°24'0 0.0 170 / 121005.2 -6.1 0.7
2016-Jan-26 00:00N 64°42' E 024°24'0 0.0 160 / 81009.1 -7.5 0.8
2016-Jan-25 23:00N 64°42' E 024°24'35 7.1 170 / 141010.2 -7.5 0.5
2016-Jan-25 18:00N 64°18' E 023°24'5 1.3 180 / 171013.6 -6.0 0.2
2016-Jan-25 14:00N 64°18' E 023°36'10 9.8 150 / 101015.8 -4.5 0.2
2016-Jan-25 13:00N 64°24' E 023°18'10 9.8 230 / 101015.5 -3.9 0.2
2016-Jan-25 12:00N 64°30' E 023°36'1615.8 220 / 81015.2 -4.0 0.3
2016-Jan-25 11:00N 64°42' E 024°00'7 3.3 250 / 81015.0 -5.1 0.3
2016-Jan-25 09:00N 64°36' E 024°06'5 2.6 340 / 61014.7 -4.5 0.2
2016-Jan-25 07:00N 64°36' E 024°18'0 0.0 040 / 101013.6 -4.5 0.2
2016-Jan-25 06:00N 64°36' E 024°18'7 1.1 340 / 61013.4 -4.7 0.3
2016-Jan-25 00:00N 64°42' E 024°24'8 7.7 210 1012.2 -6.9 0.3
2016-Jan-24 23:00N 64°42' E 024°06'8 1.1 330 / 121012.6 -6.3 0.2
2016-Jan-24 16:00N 64°42' E 024°24'0 0.0 170 / 101014.2 -3.6 0.9
2016-Jan-24 15:00N 64°42' E 024°24'0 0.0 170 / 101014.8 -3.6 0.9
2016-Jan-24 13:00N 64°42' E 024°24'0 0.0 160 / 81015.2 -3.4 0.9
2016-Jan-24 12:00N 64°42' E 024°24'0 0.0 170 / 81015.6 -3.4 0.9
2016-Jan-24 11:00N 64°42' E 024°24'0 0.0 180 / 101015.9 -3.5 0.7
2016-Jan-24 10:00N 64°42' E 024°24'10 5.1 170 / 101016.3 -3.5 0.4
2016-Jan-24 08:00N 64°42' E 024°00'3 2.6 170 / 161016.2 -2.7 0.2
2016-Jan-24 07:00N 64°42' E 023°54'0 0.0 190 / 231016.4 -2.4 0.8
2016-Jan-24 06:00N 64°42' E 023°54'0 0.0 180 / 211016.1 -2.2 0.6
2016-Jan-24 05:00N 64°42' E 023°54'0 0.0 190 / 231016.8 -2.0 0.7
2016-Jan-24 04:00N 64°42' E 023°54'0 0.0 190 / 211017.3 -2.0 0.6
2016-Jan-24 03:00N 64°42' E 023°54'13 6.4 190 / 211017.5 -1.8 0.4
2016-Jan-24 01:00N 64°42' E 024°24'1010.3 180 / 161018.7 -3.0 0.3
2016-Jan-24 00:00N 64°42' E 024°00'7 6.5 180 / 211018.2 -1.9 0.3
2016-Jan-23 23:00N 64°48' E 023°54'28 9.5 210 / 231018.2 -1.7 0.3
2016-Jan-23 20:00N 65°12' E 024°30'10 9.7 170 / 171019.2 -4.1 0.2
2016-Jan-23 19:00N 65°06' E 024°48'14 7.0 170 / 121019.9 -6.0 0.3
2016-Jan-23 17:00N 65°00' E 025°18'3110.3 130 / 171020.5 -4.2 0.4
2016-Jan-23 14:00N 65°06' E 024°06'2412.1 230 / 81019.7 -2.1 0.3
2016-Jan-23 12:00N 64°42' E 024°00'8 3.9 190 / 141020.3 -2.4 0.2
2016-Jan-23 10:00N 64°36' E 024°12'   180 / 21020.0 -3.7 0.2
Track history (hours):
 
Tides and Currents Weather Stations Pressure Air Temp Water Temp Dewpoint Dewpoint Depression Visibility Wind Speed Wind Dir Waves Ship Positions

Frej

Last reported at 2016-Feb-02 10:00 UTC. Time now 2016-Feb-11 02:25 UTC.
Position N 64°42' E 024°24'.
Warning: this ship's position is 8 days out of date.

Length 108 m; draft 7.8 m.

Type: Other ship. MMSI: 265068000.

Wind from 230 at 16 knots

Barometer 976.6 mb
Water temperature 0.8 ° C

Date/timePositionNaut miles runAvg speedWind from/ knotsBaromVisibWave heightAir tempDewpointWater temp
2016-Feb-02 10:00N 64°42' E 024°24'0 0.0 230 / 16976.6 0.8
2016-Feb-02 09:00N 64°42' E 024°24'0 0.0 230 / 16976.5 0.8
2016-Feb-02 08:00N 64°42' E 024°24'0 0.0 230 / 16976.3 0.7
2016-Feb-02 04:00N 64°42' E 024°24'0 0.0 230 / 16975.9 -7.6 0.8
2016-Feb-01 20:00N 64°42' E 024°24'0 0.0 230 / 16980.1 -5.9 0.7
2016-Feb-01 16:00N 64°42' E 024°24'0 0.0 230 / 16983.1 -0.6 0.4
2016-Feb-01 15:00N 64°42' E 024°24'0 0.0 230 / 16984.3 -0.8 0.6
2016-Feb-01 13:00N 64°42' E 024°24'0 0.0 230 / 16984.9 -0.8 0.2
2016-Feb-01 12:00N 64°42' E 024°24'0 0.0 230 / 16985.7 -1.5 0.5
2016-Feb-01 11:00N 64°42' E 024°24'0 0.0 230 / 16986.1 -1.3 0.6
2016-Feb-01 10:00N 64°42' E 024°24'0 0.0 230 / 16986.0 -1.4 0.4
2016-Feb-01 08:00N 64°42' E 024°24'0 0.0 230 / 16985.5 -1.4 0.2
2016-Feb-01 05:00N 64°42' E 024°24'0 0.0 230 / 16983.7 -1.4 0.6
2016-Feb-01 04:00N 64°42' E 024°24'0 0.0 230 / 16983.5 -0.9 0.6
2016-Feb-01 02:00N 64°42' E 024°24'0 0.0 230 / 16983.0 -0.7 0.7
2016-Jan-31 23:00N 64°42' E 024°24'0 0.0 230 / 16981.3 -0.2 0.2
2016-Jan-31 22:00N 64°42' E 024°24'0 0.0 230 / 16980.9 -0.2 0.2
2016-Jan-31 20:00N 64°42' E 024°24'0 0.0 230 / 16979.5 -0.1 0.6
2016-Jan-31 17:00N 64°42' E 024°24'0 0.0 230 / 16978.6 -1.1 0.6
2016-Jan-31 16:00N 64°42' E 024°24'0 0.0 230 / 16977.9 -0.5 0.6
2016-Jan-31 15:00N 64°42' E 024°24'0 0.0 230 / 16977.7 -0.4 0.6
2016-Jan-31 14:00N 64°42' E 024°24'0 0.0 230 / 16977.1 -0.6 0.6
2016-Jan-31 13:00N 64°42' E 024°24'0 0.0 230 / 16976.5 -0.6 0.6
2016-Jan-31 12:00N 64°42' E 024°24'0 0.0 230 / 16976.2 -0.4 0.6
2016-Jan-31 10:00N 64°42' E 024°24'0 0.0 230 / 16974.6 -0.2 0.8
2016-Jan-31 05:00N 64°42' E 024°24'0 0.0 230 / 16972.9 -0.1 0.2
2016-Jan-31 04:00N 64°42' E 024°24'0 0.0 230 / 16971.3 0.3 0.2
2016-Jan-31 03:00N 64°42' E 024°24'0 0.0 230 / 16970.1 0.3 0.2
2016-Jan-31 01:00N 64°42' E 024°24'0 0.0 230 / 16969.2 0.2 0.2
2016-Jan-31 00:00N 64°42' E 024°24'0 0.0 230 / 16969.4 0.3 0.3
2016-Jan-30 22:00N 64°42' E 024°24'0 0.0 230 / 16968.9 0.1 0.2
2016-Jan-30 15:00N 64°42' E 024°24'0 0.0 230 / 16974.0 1.6 0.7
2016-Jan-30 12:00N 64°42' E 024°24'0 0.0 230 / 16974.0 2.2 0.2
2016-Jan-29 19:00N 64°42' E 024°24'0 0.0 230 / 16981.7 -0.4 0.4
2016-Jan-29 17:00N 64°42' E 024°24'0 0.0 230 / 16986.8 -1.5 0.2
2016-Jan-29 16:00N 64°42' E 024°24'0 0.0 230 / 16986.8 -1.7 0.2
2016-Jan-29 15:00N 64°42' E 024°24'0 0.0 230 / 16988.7 -2.0 0.2
2016-Jan-29 14:00N 64°42' E 024°24'0 0.0 230 / 16990.0 -4.3 0.8
2016-Jan-29 13:00N 64°42' E 024°24'0 0.0 230 / 16990.2 -3.6 0.9
2016-Jan-29 12:00N 64°42' E 024°24'0 0.0 230 / 16990.6 -3.9 0.9
2016-Jan-29 11:00N 64°42' E 024°24'0 0.0 230 / 16991.0 -3.5 0.8
2016-Jan-29 10:00N 64°42' E 024°24'0 0.0 230 / 16991.5 -5.9 0.8
2016-Jan-29 07:00N 64°42' E 024°24'10 1.1 230 / 16991.2 -3.2 0.8
2016-Jan-28 22:00N 64°36' E 024°06'0 0.0 989.6 -5.6 0.2
2016-Jan-28 19:00N 64°36' E 024°06'0 0.0 988.0 -4.3 0.8
2016-Jan-28 17:00N 64°36' E 024°06'0 0.0 986.7 -3.9 0.7
2016-Jan-28 16:00N 64°36' E 024°06'3 2.6 985.2 -3.4 0.3
2016-Jan-28 15:00N 64°36' E 024°00'12 5.9 010 / 23985.7 -2.7 0.3
2016-Jan-28 13:00N 64°42' E 024°24'0 0.0 030 / 17984.6 -1.1 0.5
2016-Jan-28 11:00N 64°42' E 024°24'0 0.0 040 / 12984.6 -0.2 0.9
2016-Jan-28 10:00N 64°42' E 024°24'0 0.0 030 / 12985.1 -0.7 0.8
2016-Jan-28 05:00N 64°42' E 024°24'0 0.0 180 986.1 -0.2 0.9
2016-Jan-28 01:00N 64°42' E 024°24'0 0.0 230 / 12987.1 -0.2 0.8
2016-Jan-28 00:00N 64°42' E 024°24'0 0.0 220 / 12987.5 -0.2 0.7
2016-Jan-27 21:00N 64°42' E 024°24'13 3.2 220 / 16986.8 -0.2 0.8
2016-Jan-27 17:00N 64°42' E 023°54'0 0.0 230 / 23986.5 0.3 0.6
2016-Jan-27 16:00N 64°42' E 023°54'0 0.0 200 / 21986.2 0.4 0.7
2016-Jan-27 15:00N 64°42' E 023°54'0 0.0 180 / 19986.2 0.5 0.7
2016-Jan-27 14:00N 64°42' E 023°54'16 7.9 180 / 16986.3 0.5 0.5
2016-Jan-27 12:00N 64°30' E 023°30'8 7.9 230 / 16986.5 0.2 0.3
2016-Jan-27 11:00N 64°24' E 023°18'10 9.8 160 / 19986.9 -0.0 0.2
2016-Jan-27 10:00N 64°18' E 023°36'3 2.6 160 / 14987.6 0.5 0.3
2016-Jan-27 09:00N 64°18' E 023°42'6 3.0 150 / 14987.9 0.4 0.4
2016-Jan-27 07:00N 64°12' E 023°42'20 9.8 130 / 4988.4 -0.0 0.2
2016-Jan-27 05:00N 64°30' E 023°24'28 9.5 160 / 19987.9 -0.8 0.3
2016-Jan-27 02:00N 64°42' E 024°24'7 6.5 200 / 14991.1 -3.5 0.4
2016-Jan-27 01:00N 64°36' E 024°18'1414.2 280 / 8991.0 -1.4 0.2
2016-Jan-27 00:00N 64°42' E 023°48'15 7.7 250 / 10991.1 -0.5 0.3
2016-Jan-26 22:00N 64°42' E 024°24'10 2.6 210 / 23991.9 -1.3 0.3
2016-Jan-26 18:00N 64°42' E 024°00'3 2.6 260 / 14990.6 -0.2 0.5
2016-Jan-26 17:00N 64°42' E 023°54'10 9.8 260 / 16990.7 0.6 0.2
2016-Jan-26 16:00N 64°36' E 024°12'7 6.5 260 / 25989.3 -0.3 0.2
2016-Jan-26 15:00N 64°42' E 024°18'8 7.7 270 / 29989.4 -0.7 0.3
2016-Jan-26 14:00N 64°42' E 024°00'0 0.0 170 / 2989.1 -0.1 0.4
2016-Jan-26 13:00N 64°42' E 024°00'7 3.3 260 / 19988.4 0.1 0.4
2016-Jan-26 11:00N 64°36' E 024°06'8 2.0 170 / 21988.9 -1.1 0.3
2016-Jan-26 07:00N 64°42' E 024°18'0 0.0 150 / 21995.1 -3.2 0.3
2016-Jan-26 05:00N 64°42' E 024°18'3 0.9 150 / 23997.8 -3.9 0.3
2016-Jan-26 02:00N 64°42' E 024°24'0 0.0 170 / 121005.2 -6.1 0.7
2016-Jan-26 00:00N 64°42' E 024°24'0 0.0 160 / 81009.1 -7.5 0.8
2016-Jan-25 23:00N 64°42' E 024°24'35 7.1 170 / 141010.2 -7.5 0.5
2016-Jan-25 18:00N 64°18' E 023°24'5 1.3 180 / 171013.6 -6.0 0.2
2016-Jan-25 14:00N 64°18' E 023°36'10 9.8 150 / 101015.8 -4.5 0.2
2016-Jan-25 13:00N 64°24' E 023°18'10 9.8 230 / 101015.5 -3.9 0.2
2016-Jan-25 12:00N 64°30' E 023°36'1615.8 220 / 81015.2 -4.0 0.3
2016-Jan-25 11:00N 64°42' E 024°00'7 3.3 250 / 81015.0 -5.1 0.3
2016-Jan-25 09:00N 64°36' E 024°06'5 2.6 340 / 61014.7 -4.5 0.2
2016-Jan-25 07:00N 64°36' E 024°18'0 0.0 040 / 101013.6 -4.5 0.2
2016-Jan-25 06:00N 64°36' E 024°18'7 1.1 340 / 61013.4 -4.7 0.3
2016-Jan-25 00:00N 64°42' E 024°24'8 7.7 210 1012.2 -6.9 0.3
2016-Jan-24 23:00N 64°42' E 024°06'8 1.1 330 / 121012.6 -6.3 0.2
2016-Jan-24 16:00N 64°42' E 024°24'0 0.0 170 / 101014.2 -3.6 0.9
2016-Jan-24 15:00N 64°42' E 024°24'0 0.0 170 / 101014.8 -3.6 0.9
2016-Jan-24 13:00N 64°42' E 024°24'0 0.0 160 / 81015.2 -3.4 0.9
2016-Jan-24 12:00N 64°42' E 024°24'0 0.0 170 / 81015.6 -3.4 0.9
2016-Jan-24 11:00N 64°42' E 024°24'0 0.0 180 / 101015.9 -3.5 0.7
2016-Jan-24 10:00N 64°42' E 024°24'10 5.1 170 / 101016.3 -3.5 0.4
2016-Jan-24 08:00N 64°42' E 024°00'3 2.6 170 / 161016.2 -2.7 0.2
2016-Jan-24 07:00N 64°42' E 023°54'0 0.0 190 / 231016.4 -2.4 0.8
2016-Jan-24 06:00N 64°42' E 023°54'0 0.0 180 / 211016.1 -2.2 0.6
2016-Jan-24 05:00N 64°42' E 023°54'0 0.0 190 / 231016.8 -2.0 0.7
2016-Jan-24 04:00N 64°42' E 023°54'0 0.0 190 / 211017.3 -2.0 0.6
2016-Jan-24 03:00N 64°42' E 023°54'13 6.4 190 / 211017.5 -1.8 0.4
2016-Jan-24 01:00N 64°42' E 024°24'1010.3 180 / 161018.7 -3.0 0.3
2016-Jan-24 00:00N 64°42' E 024°00'7 6.5 180 / 211018.2 -1.9 0.3
2016-Jan-23 23:00N 64°48' E 023°54'28 9.5 210 / 231018.2 -1.7 0.3
2016-Jan-23 20:00N 65°12' E 024°30'10 9.7 170 / 171019.2 -4.1 0.2
2016-Jan-23 19:00N 65°06' E 024°48'14 7.0 170 / 121019.9 -6.0 0.3
2016-Jan-23 17:00N 65°00' E 025°18'3110.3 130 / 171020.5 -4.2 0.4
2016-Jan-23 14:00N 65°06' E 024°06'2412.1 230 / 81019.7 -2.1 0.3
2016-Jan-23 12:00N 64°42' E 024°00'8 3.9 190 / 141020.3 -2.4 0.2
2016-Jan-23 10:00N 64°36' E 024°12'   180 / 21020.0 -3.7 0.2

Dump ship's entire track history